createdAt,value
2023-02-11T02:03:56.847Z,31.10
2023-02-11T02:15:15.304Z,27.48
2023-02-11T02:33:22.632Z,23.83
2023-02-11T02:36:28.282Z,23.20
2023-02-11T02:39:44.664Z,22.75
2023-02-11T03:20:20.680Z,20.63
2023-02-11T03:22:53.437Z,21.25
2023-02-11T03:25:23.247Z,19.65
2023-02-11T03:28:04.252Z,17.20
2023-02-11T03:30:41.388Z,18.05
2023-02-11T03:33:18.753Z,19.65
2023-02-11T03:36:15.668Z,17.88
2023-02-11T03:38:55.697Z,18.60
2023-02-11T03:41:25.372Z,16.80
2023-02-11T03:43:57.253Z,17.77
2023-02-11T03:46:32.655Z,15.77
2023-02-11T03:49:07.449Z,16.95
2023-02-11T03:51:37.416Z,19.38
2023-02-11T03:54:10.819Z,15.60
2023-02-11T03:56:52.927Z,15.05
2023-02-11T03:59:21.653Z,17.00
2023-02-11T04:01:49.771Z,13.75
2023-02-11T04:04:18.182Z,18.38
2023-02-11T04:06:46.483Z,12.90
2023-02-11T04:09:15.480Z,17.48
2023-02-11T04:11:43.428Z,12.75
2023-02-11T04:14:11.603Z,12.48
2023-02-11T04:16:39.528Z,11.85
2023-02-11T04:19:07.668Z,12.20
2023-02-11T04:21:35.916Z,16.60
2023-02-11T04:24:04.799Z,12.50
2023-02-11T04:26:33.246Z,15.80
2023-02-11T04:29:01.358Z,14.80
2023-02-11T04:31:29.767Z,13.52
2023-02-11T04:33:57.799Z,11.73
2023-02-11T04:36:25.716Z,13.18
2023-02-11T04:38:53.977Z,11.05
2023-02-11T04:41:22.331Z,11.88
2023-02-11T04:43:52.522Z,11.57
2023-02-11T04:46:21.135Z,10.70
2023-02-11T04:48:49.647Z,13.23
2023-02-11T04:51:17.769Z,13.38
2023-02-11T04:53:45.669Z,12.10
2023-02-11T04:56:13.704Z,9.80
2023-02-11T04:58:42.244Z,9.82
2023-02-11T05:01:12.760Z,9.85
2023-02-11T05:03:42.016Z,10.68
2023-02-11T05:06:11.748Z,10.13
2023-02-11T05:08:40.305Z,9.98
2023-02-11T05:11:09.240Z,11.25
2023-02-11T05:13:37.403Z,11.07
2023-02-11T05:16:06.244Z,11.57
2023-02-11T05:18:34.190Z,11.25
2023-02-11T05:21:08.134Z,10.60
2023-02-11T05:23:43.320Z,11.68
2023-02-11T05:26:14.205Z,10.00
2023-02-11T05:28:46.274Z,10.90
2023-02-11T05:31:24.273Z,10.10
2023-02-11T05:33:54.634Z,11.18
2023-02-11T05:36:28.561Z,13.98
2023-02-11T05:38:56.764Z,12.25
2023-02-11T05:41:32.457Z,13.93
2023-02-11T05:44:01.092Z,13.30
2023-02-11T05:46:33.843Z,13.30
2023-02-11T05:49:02.414Z,10.90
2023-02-11T05:51:40.844Z,11.27
2023-02-11T05:54:12.848Z,11.98
2023-02-11T05:56:44.999Z,12.50
2023-02-11T05:59:29.429Z,12.60
2023-02-11T06:02:11.662Z,11.45
2023-02-11T06:04:47.842Z,9.90
2023-02-11T06:07:20.185Z,10.80
2023-02-11T06:09:59.558Z,10.75
2023-02-11T06:12:36.969Z,13.05
2023-02-11T06:15:24.699Z,11.23
2023-02-11T06:17:55.115Z,13.40
2023-02-11T06:20:35.308Z,11.23
2023-02-11T06:23:10.664Z,13.80
2023-02-11T06:25:40.976Z,11.90
2023-02-11T06:28:18.422Z,13.07
2023-02-11T06:30:55.553Z,11.57
2023-02-11T06:33:38.303Z,11.63
2023-02-11T06:36:18.723Z,9.98
2023-02-11T06:41:21.657Z,10.90
2023-02-11T06:43:56.656Z,11.48
2023-02-11T06:46:25.386Z,13.18
2023-02-11T06:49:03.193Z,10.75
2023-02-11T06:51:33.725Z,10.80
2023-02-11T06:54:03.860Z,13.25
2023-02-11T06:56:32.035Z,10.75
2023-02-11T06:59:01.242Z,19.05
2023-02-11T07:01:30.015Z,12.15
2023-02-11T07:03:58.676Z,9.95
2023-02-11T07:06:28.351Z,8.65
2023-02-11T07:08:57.056Z,17.15
2023-02-11T07:11:29.115Z,16.38
2023-02-11T07:14:02.205Z,14.07
2023-02-11T07:16:32.311Z,8.50
2023-02-11T07:19:06.642Z,15.07
2023-02-11T07:21:34.945Z,9.82
2023-02-11T07:24:08.287Z,12.15
2023-02-11T07:26:42.186Z,12.05
2023-02-11T07:29:30.490Z,12.30
2023-02-11T07:32:00.045Z,18.48
2023-02-11T07:34:32.316Z,12.00
2023-02-11T07:37:15.825Z,17.58
2023-02-11T07:40:26.941Z,10.63
2023-02-11T07:43:10.130Z,9.80
2023-02-11T07:45:52.055Z,11.98
2023-02-11T07:48:44.496Z,8.50
2023-02-11T07:51:25.820Z,8.85
2023-02-11T07:56:34.052Z,9.40
2023-02-11T07:59:04.961Z,8.25
2023-02-11T08:01:36.209Z,7.30
2023-02-11T08:04:25.369Z,8.50
2023-02-11T08:07:02.523Z,8.15
2023-02-11T08:09:34.582Z,9.65
2023-02-11T08:12:05.580Z,9.05
2023-02-11T08:14:37.010Z,23.30
2023-02-11T08:17:07.687Z,11.13
2023-02-11T08:19:36.932Z,9.38
2023-02-11T08:22:21.865Z,9.35
2023-02-11T08:25:34.937Z,17.13
2023-02-11T08:28:16.034Z,10.70
2023-02-11T08:31:11.488Z,10.98
2023-02-11T08:33:41.389Z,16.00
2023-02-11T08:36:20.444Z,10.82
2023-02-11T08:38:49.511Z,9.98
2023-02-11T08:41:20.408Z,11.02
2023-02-11T08:43:49.725Z,13.05
2023-02-11T08:46:20.663Z,12.52
2023-02-11T08:48:50.994Z,7.28
2023-02-11T08:51:28.056Z,9.25
2023-02-11T08:54:03.682Z,7.93
2023-02-11T08:56:33.700Z,10.40
2023-02-11T08:59:02.380Z,8.65
2023-02-11T09:01:34.831Z,7.80
2023-02-11T09:04:03.319Z,8.38
2023-02-11T09:06:32.330Z,11.43
2023-02-11T09:09:00.599Z,11.88
2023-02-11T09:11:34.076Z,11.43
2023-02-11T09:14:05.275Z,10.98
2023-02-11T09:16:41.449Z,10.65
2023-02-11T09:19:11.404Z,9.13
2023-02-11T09:21:47.879Z,9.20
2023-02-11T09:24:19.766Z,8.02
2023-02-11T09:26:51.145Z,10.55
2023-02-11T09:29:30.749Z,9.55
2023-02-11T09:32:01.780Z,8.90
2023-02-11T09:34:40.951Z,9.75
2023-02-11T09:37:20.138Z,10.35
2023-02-11T09:39:51.958Z,13.35
2023-02-11T09:42:34.234Z,10.95
2023-02-11T09:45:17.327Z,11.40
2023-02-11T09:48:17.513Z,13.93
2023-02-11T09:50:52.341Z,13.57
2023-02-11T09:54:30.913Z,10.77
2023-02-11T10:00:04.898Z,12.00
2023-02-11T10:03:23.079Z,10.00
2023-02-11T10:05:58.102Z,9.95
2023-02-11T10:09:21.729Z,11.38
2023-02-11T10:12:27.184Z,10.30
2023-02-11T10:15:20.428Z,10.40
2023-02-11T10:18:34.413Z,12.13
2023-02-11T10:21:42.109Z,9.48
2023-02-11T10:24:15.275Z,11.02
2023-02-11T10:26:46.831Z,9.73
2023-02-11T10:29:55.221Z,8.90
2023-02-11T10:32:43.229Z,9.73
2023-02-11T10:36:04.063Z,8.10
2023-02-11T10:39:07.109Z,11.63
2023-02-11T10:42:00.113Z,6.95
2023-02-11T10:44:36.555Z,6.25
2023-02-11T10:47:44.176Z,7.20
2023-02-11T10:50:39.194Z,17.85
2023-02-11T10:53:28.272Z,34.58
2023-02-11T10:56:08.657Z,12.65
2023-02-11T10:59:48.706Z,7.43
2023-02-11T11:02:56.387Z,8.10
2023-02-11T11:05:38.014Z,9.77
2023-02-11T11:09:16.253Z,8.80
2023-02-11T11:11:17.694Z,10.00
2023-02-11T11:14:22.566Z,9.18
2023-02-11T11:16:54.880Z,11.25
2023-02-11T11:19:42.130Z,11.02
2023-02-11T11:22:22.620Z,8.85
2023-02-11T11:25:04.874Z,8.10
2023-02-11T11:27:33.482Z,7.72
2023-02-11T11:30:03.769Z,9.98
2023-02-11T11:32:34.022Z,9.50
2023-02-11T11:35:20.955Z,9.80
2023-02-11T11:38:11.574Z,9.70
2023-02-11T11:40:41.952Z,9.77
2023-02-11T11:43:14.527Z,8.82
2023-02-11T11:46:03.110Z,9.27
2023-02-11T11:48:42.603Z,9.65
2023-02-11T11:51:14.066Z,8.88
2023-02-11T11:53:52.902Z,9.30
2023-02-11T11:56:24.757Z,7.68
2023-02-11T11:58:54.777Z,11.70
2023-02-11T12:01:52.482Z,8.45
2023-02-11T12:04:38.927Z,11.35
2023-02-11T12:07:12.948Z,8.45
2023-02-11T12:09:55.971Z,8.65
2023-02-11T12:12:23.876Z,7.55
2023-02-11T12:15:08.855Z,8.10
2023-02-11T12:18:06.873Z,8.50
2023-02-11T12:20:56.684Z,7.57
2023-02-11T12:24:02.978Z,6.82
2023-02-11T12:26:58.240Z,7.25
2023-02-11T12:29:30.119Z,8.07
2023-02-11T12:32:10.344Z,7.82
2023-02-11T12:35:01.655Z,8.07
2023-02-11T12:37:42.187Z,8.95
2023-02-11T12:40:30.293Z,9.13
2023-02-11T12:43:37.288Z,11.10
2023-02-11T12:46:50.521Z,11.10
2023-02-11T12:49:48.368Z,12.13
2023-02-11T12:52:28.506Z,7.53
2023-02-11T12:55:05.910Z,9.38
2023-02-11T12:57:36.828Z,8.43
2023-02-11T13:00:18.809Z,8.27
2023-02-11T13:02:56.832Z,7.18
2023-02-11T13:05:53.276Z,7.13
2023-02-11T13:08:49.679Z,6.35
2023-02-11T13:11:28.957Z,6.18
2023-02-11T13:14:33.242Z,6.95
2023-02-11T13:17:40.519Z,5.45
2023-02-11T13:20:40.677Z,6.55
2023-02-11T13:23:52.554Z,6.32
2023-02-11T13:26:44.929Z,4.95
2023-02-11T13:30:01.838Z,6.15
2023-02-11T13:33:03.831Z,8.15
2023-02-11T13:35:48.891Z,6.70
2023-02-11T13:38:22.660Z,6.88
2023-02-11T13:41:24.042Z,7.75
2023-02-11T13:44:12.202Z,8.05
2023-02-11T13:47:06.270Z,8.60
2023-02-11T13:50:32.224Z,10.25
2023-02-11T13:53:20.241Z,6.43
2023-02-11T13:56:51.802Z,7.95
2023-02-11T13:59:35.699Z,7.00
2023-02-11T14:02:49.322Z,6.22
2023-02-11T14:05:48.552Z,7.13
2023-02-11T14:08:55.974Z,8.40
2023-02-11T14:11:39.088Z,24.27
2023-02-11T14:14:34.094Z,31.40
2023-02-11T14:17:17.863Z,28.88
2023-02-11T14:19:53.866Z,28.25
2023-02-11T14:22:44.217Z,22.80
2023-02-11T14:25:25.466Z,22.25
2023-02-11T14:28:18.847Z,11.05
2023-02-11T14:31:05.384Z,37.35
2023-02-11T14:33:46.949Z,18.30
2023-02-11T14:36:46.623Z,7.60
2023-02-11T14:39:18.355Z,8.85
2023-02-11T14:41:59.840Z,15.50
2023-02-11T14:44:35.005Z,10.85
2023-02-11T14:47:53.148Z,25.35
2023-02-11T14:51:11.142Z,11.27
2023-02-11T14:53:44.896Z,8.80
2023-02-11T14:56:26.844Z,11.45
2023-02-11T14:59:02.002Z,14.18
2023-02-11T15:01:44.087Z,10.98
2023-02-11T15:04:26.848Z,23.55
2023-02-11T15:06:57.889Z,30.90
2023-02-11T15:09:41.028Z,27.13
2023-02-11T15:12:28.303Z,23.75
2023-02-11T15:15:01.071Z,23.80
2023-02-11T15:17:33.020Z,23.25
2023-02-11T15:20:02.882Z,23.88
2023-02-11T15:22:37.137Z,23.08
2023-02-11T15:25:17.179Z,20.25
2023-02-11T15:27:51.880Z,23.38
2023-02-11T15:30:22.986Z,24.60
2023-02-11T15:33:21.058Z,30.45
2023-02-11T15:36:17.486Z,46.65
2023-02-11T15:38:45.630Z,37.08
2023-02-11T15:41:37.109Z,22.95
2023-02-11T15:44:05.158Z,26.15
2023-02-11T15:46:40.519Z,21.65
2023-02-11T15:49:19.493Z,27.35
2023-02-11T15:51:48.309Z,42.28
2023-02-11T15:54:29.658Z,42.15
2023-02-11T15:57:05.278Z,25.73
2023-02-11T15:59:41.462Z,23.48
2023-02-11T16:02:22.320Z,27.17
2023-02-11T16:04:56.600Z,30.58
2023-02-11T16:07:47.810Z,29.35
2023-02-11T16:10:32.406Z,45.25
2023-02-11T16:13:06.334Z,28.35
2023-02-11T16:15:34.649Z,23.10
2023-02-11T16:18:04.819Z,19.30
2023-02-11T16:20:32.796Z,18.13
2023-02-11T16:23:02.815Z,15.35
2023-02-11T16:25:32.274Z,16.27
2023-02-11T16:28:00.842Z,13.27
2023-02-11T16:30:39.087Z,15.43
2023-02-11T16:33:07.061Z,15.82
2023-02-11T16:35:34.958Z,14.55
2023-02-11T16:38:03.167Z,15.98
2023-02-11T16:40:31.104Z,19.80
2023-02-11T16:42:59.102Z,17.83
2023-02-11T16:45:27.393Z,18.98
2023-02-11T16:47:55.704Z,14.15
2023-02-11T16:50:25.783Z,17.85
2023-02-11T16:52:53.879Z,24.40
2023-02-11T16:55:24.015Z,30.77
2023-02-11T16:57:51.967Z,46.92
2023-02-11T17:00:21.063Z,59.65
2023-02-11T17:02:51.780Z,44.58
2023-02-11T17:05:23.308Z,47.75
2023-02-11T17:07:51.664Z,51.08
2023-02-11T17:10:22.725Z,45.80
2023-02-11T17:12:53.806Z,53.88
2023-02-11T17:15:21.788Z,59.85
2023-02-11T17:17:49.755Z,68.43
2023-02-11T17:20:17.871Z,65.80
2023-02-11T17:22:45.793Z,55.85
2023-02-11T17:25:13.802Z,51.13
2023-02-11T17:27:42.150Z,52.65
2023-02-11T17:30:11.768Z,32.05
2023-02-11T17:32:39.853Z,31.98
2023-02-11T17:35:08.282Z,41.50
2023-02-11T17:37:36.391Z,32.85
2023-02-11T17:40:04.445Z,59.55
2023-02-11T17:42:32.409Z,57.92
2023-02-11T17:45:00.311Z,47.47
2023-02-11T17:47:28.270Z,41.85
2023-02-11T17:49:56.245Z,66.13
2023-02-11T17:52:24.689Z,52.28
2023-02-11T17:54:52.962Z,45.92
2023-02-11T17:57:21.157Z,44.25
2023-02-11T17:59:49.139Z,46.40
2023-02-11T18:02:17.096Z,45.17
2023-02-11T18:04:44.971Z,44.28
2023-02-11T18:07:13.011Z,45.70
2023-02-11T18:09:41.803Z,46.22
2023-02-11T18:12:11.089Z,56.97
2023-02-11T18:14:41.259Z,58.28
2023-02-11T18:17:09.461Z,66.40
2023-02-11T18:19:37.875Z,78.50
2023-02-11T18:22:05.885Z,84.82
2023-02-11T18:24:33.893Z,85.28
2023-02-11T18:27:01.975Z,94.20
2023-02-11T18:29:30.032Z,111.18
2023-02-11T18:31:58.303Z,113.43
2023-02-11T18:34:26.768Z,127.53
2023-02-11T18:36:54.668Z,132.48
2023-02-11T18:39:24.505Z,150.23
2023-02-11T18:41:55.023Z,174.75
2023-02-11T18:44:24.903Z,169.25
2023-02-11T18:46:53.614Z,181.43
2023-02-11T18:49:21.655Z,184.43
2023-02-11T18:51:49.803Z,196.88
2023-02-11T18:54:17.916Z,209.65
2023-02-11T18:56:48.812Z,210.65
2023-02-11T18:59:16.738Z,219.75
2023-02-11T19:01:47.148Z,220.60
2023-02-11T19:04:20.199Z,244.38
2023-02-11T19:06:50.237Z,254.10
2023-02-11T19:09:20.723Z,261.48
2023-02-11T19:11:52.569Z,280.95
2023-02-11T19:14:23.968Z,276.35
2023-02-11T19:16:54.332Z,283.10
2023-02-11T19:19:24.170Z,284.45
2023-02-11T19:21:52.231Z,311.98
2023-02-11T19:24:21.040Z,312.15
2023-02-11T19:26:50.484Z,316.83
2023-02-11T19:29:18.957Z,314.50
2023-02-11T19:31:47.145Z,319.15
2023-02-11T19:34:17.027Z,297.35
2023-02-11T19:36:45.064Z,302.52
2023-02-11T19:39:13.303Z,298.98
2023-02-11T19:41:41.251Z,312.67
2023-02-11T19:44:09.812Z,318.42
2023-02-11T19:46:41.139Z,315.95
2023-02-11T19:49:11.724Z,326.05
2023-02-11T19:51:39.802Z,324.98
2023-02-11T19:54:08.414Z,332.15
2023-02-11T19:56:38.450Z,318.52
2023-02-11T19:59:09.152Z,312.52
2023-02-11T20:01:37.364Z,313.05
2023-02-11T20:04:05.502Z,309.35
2023-02-11T20:06:34.063Z,311.20
2023-02-11T20:09:05.594Z,314.08
2023-02-11T20:11:34.894Z,309.33
2023-02-11T20:14:03.233Z,307.40
2023-02-11T20:16:47.030Z,304.80
2023-02-11T20:19:18.443Z,306.63
2023-02-11T20:21:48.825Z,305.35
2023-02-11T20:24:18.765Z,298.90
2023-02-11T20:26:48.763Z,281.73
2023-02-11T20:29:18.335Z,274.10
